sensor_id;sensor_type;location;lat;lon;timestamp;P1;durP1;ratioP1;P2;durP2;ratioP2
18455;SDS011;9357;49.900;8.208;2023-02-28T00:00:15;2.78;;;2.50;;
18455;SDS011;9357;49.900;8.208;2023-02-28T00:01:48;2.35;;;2.25;;
18455;SDS011;9357;49.900;8.208;2023-02-28T00:03:21;2.40;;;2.20;;
18455;SDS011;9357;49.900;8.208;2023-02-28T00:04:53;2.65;;;2.40;;
18455;SDS011;9357;49.900;8.208;2023-02-28T00:06:32;3.03;;;2.65;;
18455;SDS011;9357;49.900;8.208;2023-02-28T00:08:05;3.08;;;2.40;;
18455;SDS011;9357;49.900;8.208;2023-02-28T00:09:36;3.25;;;2.60;;
18455;SDS011;9357;49.900;8.208;2023-02-28T00:11:10;3.00;;;2.30;;
18455;SDS011;9357;49.900;8.208;2023-02-28T00:12:46;2.67;;;2.47;;
18455;SDS011;9357;49.900;8.208;2023-02-28T00:14:19;2.15;;;2.00;;
18455;SDS011;9357;49.900;8.208;2023-02-28T00:16:01;3.00;;;2.30;;
18455;SDS011;9357;49.900;8.208;2023-02-28T00:17:36;3.08;;;2.40;;
18455;SDS011;9357;49.900;8.208;2023-02-28T00:19:08;3.60;;;2.45;;
18455;SDS011;9357;49.900;8.208;2023-02-28T00:20:44;2.60;;;2.40;;
18455;SDS011;9357;49.900;8.208;2023-02-28T00:22:18;3.28;;;2.30;;
18455;SDS011;9357;49.900;8.208;2023-02-28T00:23:52;2.53;;;2.22;;
18455;SDS011;9357;49.900;8.208;2023-02-28T00:25:24;2.83;;;2.50;;
18455;SDS011;9357;49.900;8.208;2023-02-28T00:26:57;2.60;;;2.35;;
18455;SDS011;9357;49.900;8.208;2023-02-28T00:28:30;2.35;;;2.15;;
18455;SDS011;9357;49.900;8.208;2023-02-28T00:30:04;2.83;;;2.50;;
18455;SDS011;9357;49.900;8.208;2023-02-28T00:31:38;2.55;;;2.35;;
18455;SDS011;9357;49.900;8.208;2023-02-28T00:33:11;3.05;;;2.67;;
18455;SDS011;9357;49.900;8.208;2023-02-28T00:34:44;3.08;;;2.33;;
18455;SDS011;9357;49.900;8.208;2023-02-28T00:36:16;3.67;;;2.80;;
18455;SDS011;9357;49.900;8.208;2023-02-28T00:37:49;2.40;;;2.13;;
18455;SDS011;9357;49.900;8.208;2023-02-28T00:39:22;2.40;;;2.20;;
18455;SDS011;9357;49.900;8.208;2023-02-28T00:40:53;2.50;;;2.30;;
18455;SDS011;9357;49.900;8.208;2023-02-28T00:42:26;3.17;;;2.58;;
18455;SDS011;9357;49.900;8.208;2023-02-28T00:44:00;2.50;;;2.30;;
18455;SDS011;9357;49.900;8.208;2023-02-28T00:45:33;3.22;;;2.42;;
18455;SDS011;9357;49.900;8.208;2023-02-28T00:47:06;2.85;;;2.50;;
18455;SDS011;9357;49.900;8.208;2023-02-28T00:48:39;2.50;;;2.30;;
18455;SDS011;9357;49.900;8.208;2023-02-28T00:50:11;4.72;;;2.60;;
18455;SDS011;9357;49.900;8.208;2023-02-28T00:51:44;3.05;;;2.53;;
18455;SDS011;9357;49.900;8.208;2023-02-28T00:53:17;3.05;;;2.78;;
18455;SDS011;9357;49.900;8.208;2023-02-28T00:54:49;2.92;;;2.67;;
18455;SDS011;9357;49.900;8.208;2023-02-28T00:56:22;3.33;;;2.80;;
18455;SDS011;9357;49.900;8.208;2023-02-28T00:57:55;2.80;;;2.60;;
18455;SDS011;9357;49.900;8.208;2023-02-28T00:59:29;3.38;;;2.90;;
18455;SDS011;9357;49.900;8.208;2023-02-28T01:01:02;3.60;;;2.63;;
18455;SDS011;9357;49.900;8.208;2023-02-28T01:02:35;3.92;;;2.70;;
18455;SDS011;9357;49.900;8.208;2023-02-28T01:04:07;2.88;;;2.42;;
18455;SDS011;9357;49.900;8.208;2023-02-28T01:05:40;3.03;;;2.83;;
18455;SDS011;9357;49.900;8.208;2023-02-28T01:07:13;4.28;;;2.75;;
18455;SDS011;9357;49.900;8.208;2023-02-28T01:08:46;3.25;;;2.70;;
18455;SDS011;9357;49.900;8.208;2023-02-28T01:10:18;3.22;;;2.83;;
18455;SDS011;9357;49.900;8.208;2023-02-28T01:11:51;3.53;;;2.90;;
18455;SDS011;9357;49.900;8.208;2023-02-28T01:13:24;4.07;;;2.90;;
18455;SDS011;9357;49.900;8.208;2023-02-28T01:14:58;3.25;;;2.95;;
18455;SDS011;9357;49.900;8.208;2023-02-28T01:16:31;3.65;;;2.88;;
18455;SDS011;9357;49.900;8.208;2023-02-28T01:18:04;3.38;;;3.03;;
18455;SDS011;9357;49.900;8.208;2023-02-28T01:19:36;4.22;;;2.80;;
18455;SDS011;9357;49.900;8.208;2023-02-28T01:21:10;2.95;;;2.67;;
18455;SDS011;9357;49.900;8.208;2023-02-28T01:22:44;4.30;;;3.17;;
18455;SDS011;9357;49.900;8.208;2023-02-28T01:24:17;3.42;;;3.10;;
18455;SDS011;9357;49.900;8.208;2023-02-28T01:25:50;4.07;;;3.13;;
18455;SDS011;9357;49.900;8.208;2023-02-28T01:27:23;3.25;;;2.97;;
18455;SDS011;9357;49.900;8.208;2023-02-28T01:28:56;4.80;;;3.22;;
18455;SDS011;9357;49.900;8.208;2023-02-28T01:30:30;3.42;;;3.08;;
18455;SDS011;9357;49.900;8.208;2023-02-28T01:32:03;3.50;;;3.20;;
18455;SDS011;9357;49.900;8.208;2023-02-28T01:33:36;4.47;;;3.17;;
18455;SDS011;9357;49.900;8.208;2023-02-28T01:35:09;4.45;;;3.30;;
18455;SDS011;9357;49.900;8.208;2023-02-28T01:36:42;3.75;;;3.13;;
18455;SDS011;9357;49.900;8.208;2023-02-28T01:38:15;4.32;;;3.22;;
18455;SDS011;9357;49.900;8.208;2023-02-28T01:39:53;3.55;;;3.25;;
18455;SDS011;9357;49.900;8.208;2023-02-28T01:41:26;3.15;;;2.95;;
18455;SDS011;9357;49.900;8.208;2023-02-28T01:43:01;3.67;;;3.38;;
18455;SDS011;9357;49.900;8.208;2023-02-28T01:46:31;4.40;;;3.50;;
18455;SDS011;9357;49.900;8.208;2023-02-28T01:48:07;3.85;;;3.38;;
18455;SDS011;9357;49.900;8.208;2023-02-28T01:49:40;3.83;;;3.42;;
18455;SDS011;9357;49.900;8.208;2023-02-28T01:51:14;4.80;;;3.67;;
18455;SDS011;9357;49.900;8.208;2023-02-28T01:52:50;4.20;;;3.60;;
18455;SDS011;9357;49.900;8.208;2023-02-28T01:54:26;5.78;;;3.60;;
18455;SDS011;9357;49.900;8.208;2023-02-28T01:56:01;4.75;;;3.50;;
18455;SDS011;9357;49.900;8.208;2023-02-28T01:57:38;6.22;;;3.55;;
18455;SDS011;9357;49.900;8.208;2023-02-28T01:59:14;4.05;;;3.50;;
18455;SDS011;9357;49.900;8.208;2023-02-28T02:00:52;4.65;;;3.90;;
18455;SDS011;9357;49.900;8.208;2023-02-28T02:02:26;4.65;;;4.10;;
18455;SDS011;9357;49.900;8.208;2023-02-28T02:04:01;5.60;;;4.63;;
18455;SDS011;9357;49.900;8.208;2023-02-28T02:05:36;5.15;;;4.10;;
18455;SDS011;9357;49.900;8.208;2023-02-28T02:07:11;4.10;;;3.65;;
18455;SDS011;9357;49.900;8.208;2023-02-28T02:08:43;6.53;;;4.50;;
18455;SDS011;9357;49.900;8.208;2023-02-28T02:10:17;5.60;;;4.20;;
18455;SDS011;9357;49.900;8.208;2023-02-28T02:11:52;6.05;;;5.00;;
18455;SDS011;9357;49.900;8.208;2023-02-28T02:13:31;6.68;;;5.25;;
18455;SDS011;9357;49.900;8.208;2023-02-28T02:15:14;6.05;;;4.93;;
18455;SDS011;9357;49.900;8.208;2023-02-28T02:17:00;5.65;;;4.90;;
18455;SDS011;9357;49.900;8.208;2023-02-28T02:18:44;7.68;;;5.72;;
18455;SDS011;9357;49.900;8.208;2023-02-28T02:20:37;6.47;;;5.53;;
18455;SDS011;9357;49.900;8.208;2023-02-28T02:24:33;7.20;;;5.38;;
18455;SDS011;9357;49.900;8.208;2023-02-28T02:26:48;6.25;;;4.93;;
18455;SDS011;9357;49.900;8.208;2023-02-28T02:28:46;6.10;;;5.47;;
18455;SDS011;9357;49.900;8.208;2023-02-28T02:30:37;6.32;;;5.30;;
18455;SDS011;9357;49.900;8.208;2023-02-28T02:34:28;6.35;;;5.35;;
18455;SDS011;9357;49.900;8.208;2023-02-28T02:36:21;9.27;;;5.65;;
18455;SDS011;9357;49.900;8.208;2023-02-28T02:37:58;8.85;;;6.22;;
18455;SDS011;9357;49.900;8.208;2023-02-28T02:39:40;7.57;;;5.65;;
18455;SDS011;9357;49.900;8.208;2023-02-28T02:41:23;6.65;;;5.70;;
18455;SDS011;9357;49.900;8.208;2023-02-28T02:43:01;6.50;;;5.80;;
18455;SDS011;9357;49.900;8.208;2023-02-28T02:50:30;9.73;;;6.35;;
18455;SDS011;9357;49.900;8.208;2023-02-28T02:52:07;9.27;;;5.57;;
18455;SDS011;9357;49.900;8.208;2023-02-28T02:53:44;7.28;;;6.03;;
18455;SDS011;9357;49.900;8.208;2023-02-28T02:55:22;9.48;;;5.93;;
18455;SDS011;9357;49.900;8.208;2023-02-28T02:56:55;8.32;;;6.03;;
18455;SDS011;9357;49.900;8.208;2023-02-28T02:58:36;8.57;;;5.88;;
18455;SDS011;9357;49.900;8.208;2023-02-28T03:00:13;8.88;;;5.47;;
18455;SDS011;9357;49.900;8.208;2023-02-28T03:01:48;7.20;;;5.93;;
18455;SDS011;9357;49.900;8.208;2023-02-28T03:03:24;7.28;;;6.53;;
18455;SDS011;9357;49.900;8.208;2023-02-28T03:05:01;9.77;;;6.40;;
18455;SDS011;9357;49.900;8.208;2023-02-28T03:06:39;8.50;;;6.63;;
18455;SDS011;9357;49.900;8.208;2023-02-28T03:08:12;7.63;;;6.25;;
18455;SDS011;9357;49.900;8.208;2023-02-28T03:09:49;8.00;;;6.28;;
18455;SDS011;9357;49.900;8.208;2023-02-28T03:11:23;10.00;;;6.60;;
18455;SDS011;9357;49.900;8.208;2023-02-28T03:12:58;8.57;;;6.38;;
18455;SDS011;9357;49.900;8.208;2023-02-28T03:14:40;11.30;;;7.15;;
18455;SDS011;9357;49.900;8.208;2023-02-28T03:16:36;8.23;;;6.50;;
18455;SDS011;9357;49.900;8.208;2023-02-28T03:18:20;8.75;;;6.47;;
18455;SDS011;9357;49.900;8.208;2023-02-28T03:20:07;7.70;;;6.40;;
18455;SDS011;9357;49.900;8.208;2023-02-28T03:21:52;9.38;;;6.32;;
18455;SDS011;9357;49.900;8.208;2023-02-28T03:23:35;9.38;;;6.60;;
18455;SDS011;9357;49.900;8.208;2023-02-28T03:25:15;7.28;;;6.28;;
18455;SDS011;9357;49.900;8.208;2023-02-28T03:26:52;9.57;;;6.35;;
18455;SDS011;9357;49.900;8.208;2023-02-28T03:28:32;9.27;;;6.90;;
18455;SDS011;9357;49.900;8.208;2023-02-28T03:30:13;9.02;;;6.45;;
18455;SDS011;9357;49.900;8.208;2023-02-28T03:31:51;7.78;;;6.20;;
18455;SDS011;9357;49.900;8.208;2023-02-28T03:33:26;8.18;;;6.20;;
18455;SDS011;9357;49.900;8.208;2023-02-28T03:35:03;8.77;;;6.47;;
18455;SDS011;9357;49.900;8.208;2023-02-28T03:36:42;13.13;;;6.93;;
18455;SDS011;9357;49.900;8.208;2023-02-28T03:38:20;10.40;;;6.60;;
18455;SDS011;9357;49.900;8.208;2023-02-28T03:40:00;7.60;;;6.38;;
18455;SDS011;9357;49.900;8.208;2023-02-28T03:41:35;8.82;;;6.18;;
18455;SDS011;9357;49.900;8.208;2023-02-28T03:43:12;10.18;;;6.32;;
18455;SDS011;9357;49.900;8.208;2023-02-28T03:44:49;6.82;;;5.60;;
18455;SDS011;9357;49.900;8.208;2023-02-28T03:46:27;8.77;;;6.40;;
18455;SDS011;9357;49.900;8.208;2023-02-28T03:48:05;7.85;;;6.45;;
18455;SDS011;9357;49.900;8.208;2023-02-28T03:49:44;7.38;;;5.70;;
18455;SDS011;9357;49.900;8.208;2023-02-28T03:51:21;6.88;;;5.88;;
18455;SDS011;9357;49.900;8.208;2023-02-28T03:52:57;8.73;;;6.10;;
18455;SDS011;9357;49.900;8.208;2023-02-28T03:54:38;6.60;;;5.45;;
18455;SDS011;9357;49.900;8.208;2023-02-28T03:56:16;8.05;;;6.00;;
18455;SDS011;9357;49.900;8.208;2023-02-28T03:57:53;9.23;;;6.13;;
18455;SDS011;9357;49.900;8.208;2023-02-28T03:59:32;7.80;;;5.68;;
18455;SDS011;9357;49.900;8.208;2023-02-28T04:01:09;7.18;;;5.95;;
18455;SDS011;9357;49.900;8.208;2023-02-28T04:02:46;8.00;;;6.30;;
18455;SDS011;9357;49.900;8.208;2023-02-28T04:04:23;9.52;;;5.90;;
18455;SDS011;9357;49.900;8.208;2023-02-28T04:05:56;6.70;;;5.80;;
18455;SDS011;9357;49.900;8.208;2023-02-28T04:07:30;7.82;;;6.00;;
18455;SDS011;9357;49.900;8.208;2023-02-28T04:09:03;7.25;;;5.75;;
18455;SDS011;9357;49.900;8.208;2023-02-28T04:10:38;6.30;;;5.45;;
18455;SDS011;9357;49.900;8.208;2023-02-28T04:12:10;9.75;;;5.70;;
18455;SDS011;9357;49.900;8.208;2023-02-28T04:13:43;7.63;;;5.90;;
18455;SDS011;9357;49.900;8.208;2023-02-28T04:15:17;9.80;;;5.90;;
18455;SDS011;9357;49.900;8.208;2023-02-28T04:16:53;8.05;;;5.57;;
18455;SDS011;9357;49.900;8.208;2023-02-28T04:18:26;8.75;;;6.18;;
18455;SDS011;9357;49.900;8.208;2023-02-28T04:19:59;7.53;;;5.93;;
18455;SDS011;9357;49.900;8.208;2023-02-28T04:21:32;8.80;;;6.18;;
18455;SDS011;9357;49.900;8.208;2023-02-28T04:23:07;10.13;;;6.05;;
18455;SDS011;9357;49.900;8.208;2023-02-28T04:24:39;6.65;;;5.45;;
18455;SDS011;9357;49.900;8.208;2023-02-28T04:26:14;8.70;;;5.78;;
18455;SDS011;9357;49.900;8.208;2023-02-28T04:27:47;7.47;;;5.55;;
18455;SDS011;9357;49.900;8.208;2023-02-28T04:29:20;9.48;;;6.40;;
18455;SDS011;9357;49.900;8.208;2023-02-28T04:30:55;8.38;;;5.82;;
18455;SDS011;9357;49.900;8.208;2023-02-28T04:32:28;6.95;;;6.00;;
18455;SDS011;9357;49.900;8.208;2023-02-28T04:34:01;9.48;;;6.38;;
18455;SDS011;9357;49.900;8.208;2023-02-28T04:35:34;7.15;;;5.68;;
18455;SDS011;9357;49.900;8.208;2023-02-28T04:37:07;7.90;;;5.85;;
18455;SDS011;9357;49.900;8.208;2023-02-28T04:38:44;7.32;;;6.20;;
18455;SDS011;9357;49.900;8.208;2023-02-28T04:40:17;10.20;;;6.70;;
18455;SDS011;9357;49.900;8.208;2023-02-28T04:41:52;7.95;;;5.80;;
18455;SDS011;9357;49.900;8.208;2023-02-28T04:43:25;7.05;;;5.88;;
18455;SDS011;9357;49.900;8.208;2023-02-28T04:44:58;6.63;;;5.72;;
18455;SDS011;9357;49.900;8.208;2023-02-28T04:46:31;7.97;;;5.60;;
18455;SDS011;9357;49.900;8.208;2023-02-28T04:48:04;7.07;;;6.10;;
18455;SDS011;9357;49.900;8.208;2023-02-28T04:49:36;9.27;;;5.78;;
18455;SDS011;9357;49.900;8.208;2023-02-28T04:51:10;7.95;;;5.95;;
18455;SDS011;9357;49.900;8.208;2023-02-28T04:52:45;7.93;;;5.90;;
18455;SDS011;9357;49.900;8.208;2023-02-28T04:54:17;8.18;;;5.82;;
18455;SDS011;9357;49.900;8.208;2023-02-28T04:55:50;7.15;;;5.85;;
18455;SDS011;9357;49.900;8.208;2023-02-28T04:57:23;7.18;;;6.45;;
18455;SDS011;9357;49.900;8.208;2023-02-28T04:58:56;6.70;;;5.53;;
18455;SDS011;9357;49.900;8.208;2023-02-28T05:00:29;7.35;;;5.65;;
18455;SDS011;9357;49.900;8.208;2023-02-28T05:02:03;7.88;;;5.80;;
18455;SDS011;9357;49.900;8.208;2023-02-28T05:03:38;7.07;;;5.82;;
18455;SDS011;9357;49.900;8.208;2023-02-28T05:05:11;6.93;;;5.65;;
18455;SDS011;9357;49.900;8.208;2023-02-28T05:06:49;9.35;;;6.15;;
18455;SDS011;9357;49.900;8.208;2023-02-28T05:08:21;8.98;;;5.90;;
18455;SDS011;9357;49.900;8.208;2023-02-28T05:09:54;6.75;;;5.45;;
18455;SDS011;9357;49.900;8.208;2023-02-28T05:11:27;7.72;;;5.95;;
18455;SDS011;9357;49.900;8.208;2023-02-28T05:13:08;7.47;;;5.28;;
18455;SDS011;9357;49.900;8.208;2023-02-28T05:14:43;8.68;;;5.60;;
18455;SDS011;9357;49.900;8.208;2023-02-28T05:16:16;8.57;;;5.72;;
18455;SDS011;9357;49.900;8.208;2023-02-28T05:17:50;6.90;;;5.68;;
18455;SDS011;9357;49.900;8.208;2023-02-28T05:19:22;7.72;;;5.90;;
18455;SDS011;9357;49.900;8.208;2023-02-28T05:20:55;7.05;;;5.68;;
18455;SDS011;9357;49.900;8.208;2023-02-28T05:22:28;7.75;;;5.50;;
18455;SDS011;9357;49.900;8.208;2023-02-28T05:24:02;6.53;;;5.50;;
18455;SDS011;9357;49.900;8.208;2023-02-28T05:25:36;7.30;;;5.70;;
18455;SDS011;9357;49.900;8.208;2023-02-28T05:27:09;8.45;;;5.78;;
18455;SDS011;9357;49.900;8.208;2023-02-28T05:28:43;8.13;;;5.25;;
18455;SDS011;9357;49.900;8.208;2023-02-28T05:30:16;7.75;;;5.53;;
18455;SDS011;9357;49.900;8.208;2023-02-28T05:31:49;6.40;;;5.22;;
18455;SDS011;9357;49.900;8.208;2023-02-28T05:33:22;7.60;;;5.28;;
18455;SDS011;9357;49.900;8.208;2023-02-28T05:34:54;8.23;;;5.60;;
18455;SDS011;9357;49.900;8.208;2023-02-28T05:36:27;6.78;;;5.53;;
18455;SDS011;9357;49.900;8.208;2023-02-28T05:37:59;6.18;;;5.10;;
18455;SDS011;9357;49.900;8.208;2023-02-28T05:39:32;5.90;;;5.25;;
18455;SDS011;9357;49.900;8.208;2023-02-28T05:41:05;7.28;;;5.38;;
18455;SDS011;9357;49.900;8.208;2023-02-28T05:42:39;6.32;;;5.20;;
18455;SDS011;9357;49.900;8.208;2023-02-28T05:44:13;7.07;;;5.28;;
18455;SDS011;9357;49.900;8.208;2023-02-28T05:45:47;8.05;;;5.50;;
18455;SDS011;9357;49.900;8.208;2023-02-28T05:47:19;8.05;;;5.65;;
18455;SDS011;9357;49.900;8.208;2023-02-28T05:48:52;7.47;;;5.53;;
18455;SDS011;9357;49.900;8.208;2023-02-28T05:50:24;7.22;;;5.40;;
18455;SDS011;9357;49.900;8.208;2023-02-28T05:51:57;8.90;;;5.60;;
18455;SDS011;9357;49.900;8.208;2023-02-28T05:53:30;7.13;;;5.57;;
18455;SDS011;9357;49.900;8.208;2023-02-28T05:55:03;6.32;;;5.50;;
18455;SDS011;9357;49.900;8.208;2023-02-28T05:56:37;6.82;;;5.20;;
18455;SDS011;9357;49.900;8.208;2023-02-28T05:58:10;7.97;;;5.18;;
18455;SDS011;9357;49.900;8.208;2023-02-28T05:59:45;6.55;;;5.57;;
18455;SDS011;9357;49.900;8.208;2023-02-28T06:01:22;6.68;;;5.50;;
18455;SDS011;9357;49.900;8.208;2023-02-28T06:02:56;8.48;;;6.05;;
18455;SDS011;9357;49.900;8.208;2023-02-28T06:04:32;14.07;;;10.38;;
18455;SDS011;9357;49.900;8.208;2023-02-28T06:06:05;7.95;;;6.18;;
18455;SDS011;9357;49.900;8.208;2023-02-28T06:07:38;8.02;;;6.50;;
18455;SDS011;9357;49.900;8.208;2023-02-28T06:09:11;6.35;;;5.13;;
18455;SDS011;9357;49.900;8.208;2023-02-28T06:10:44;6.38;;;5.43;;
18455;SDS011;9357;49.900;8.208;2023-02-28T06:12:17;9.68;;;6.15;;
18455;SDS011;9357;49.900;8.208;2023-02-28T06:13:49;6.28;;;5.45;;
18455;SDS011;9357;49.900;8.208;2023-02-28T06:15:27;7.55;;;5.75;;
18455;SDS011;9357;49.900;8.208;2023-02-28T06:17:00;7.38;;;5.72;;
18455;SDS011;9357;49.900;8.208;2023-02-28T06:18:33;7.88;;;5.82;;
18455;SDS011;9357;49.900;8.208;2023-02-28T06:20:07;6.55;;;5.85;;
18455;SDS011;9357;49.900;8.208;2023-02-28T06:21:40;7.90;;;6.20;;
18455;SDS011;9357;49.900;8.208;2023-02-28T06:23:14;7.13;;;5.70;;
18455;SDS011;9357;49.900;8.208;2023-02-28T06:24:46;7.45;;;5.72;;
18455;SDS011;9357;49.900;8.208;2023-02-28T06:26:19;9.35;;;5.65;;
18455;SDS011;9357;49.900;8.208;2023-02-28T06:27:52;8.52;;;6.05;;
18455;SDS011;9357;49.900;8.208;2023-02-28T06:29:25;8.10;;;5.57;;
18455;SDS011;9357;49.900;8.208;2023-02-28T06:31:04;7.07;;;5.20;;
18455;SDS011;9357;49.900;8.208;2023-02-28T06:32:38;7.10;;;5.07;;
18455;SDS011;9357;49.900;8.208;2023-02-28T06:34:12;7.30;;;5.50;;
18455;SDS011;9357;49.900;8.208;2023-02-28T06:35:46;5.53;;;4.95;;
18455;SDS011;9357;49.900;8.208;2023-02-28T06:37:19;7.07;;;4.90;;
18455;SDS011;9357;49.900;8.208;2023-02-28T06:38:52;6.63;;;4.85;;
18455;SDS011;9357;49.900;8.208;2023-02-28T06:40:26;8.50;;;5.55;;
18455;SDS011;9357;49.900;8.208;2023-02-28T06:41:59;8.02;;;5.10;;
18455;SDS011;9357;49.900;8.208;2023-02-28T06:43:32;6.72;;;5.05;;
18455;SDS011;9357;49.900;8.208;2023-02-28T06:45:08;7.72;;;5.60;;
18455;SDS011;9357;49.900;8.208;2023-02-28T06:46:43;7.47;;;5.53;;
18455;SDS011;9357;49.900;8.208;2023-02-28T06:48:17;9.40;;;5.70;;
18455;SDS011;9357;49.900;8.208;2023-02-28T06:49:50;7.63;;;5.50;;
18455;SDS011;9357;49.900;8.208;2023-02-28T06:51:23;7.45;;;5.22;;
18455;SDS011;9357;49.900;8.208;2023-02-28T06:52:56;6.78;;;5.60;;
18455;SDS011;9357;49.900;8.208;2023-02-28T06:54:28;8.13;;;5.60;;
18455;SDS011;9357;49.900;8.208;2023-02-28T06:56:03;6.82;;;5.22;;
18455;SDS011;9357;49.900;8.208;2023-02-28T06:57:37;8.57;;;5.55;;
18455;SDS011;9357;49.900;8.208;2023-02-28T06:59:10;8.10;;;5.30;;
18455;SDS011;9357;49.900;8.208;2023-02-28T07:00:43;8.07;;;5.78;;
18455;SDS011;9357;49.900;8.208;2023-02-28T07:02:18;6.88;;;5.53;;
18455;SDS011;9357;49.900;8.208;2023-02-28T07:03:51;7.75;;;5.30;;
18455;SDS011;9357;49.900;8.208;2023-02-28T07:05:24;7.97;;;5.30;;
18455;SDS011;9357;49.900;8.208;2023-02-28T07:06:56;8.15;;;5.70;;
18455;SDS011;9357;49.900;8.208;2023-02-28T07:08:29;8.00;;;5.38;;
18455;SDS011;9357;49.900;8.208;2023-02-28T07:10:03;9.15;;;5.93;;
18455;SDS011;9357;49.900;8.208;2023-02-28T07:11:36;7.32;;;5.35;;
18455;SDS011;9357;49.900;8.208;2023-02-28T07:13:08;7.07;;;5.20;;
18455;SDS011;9357;49.900;8.208;2023-02-28T07:14:41;5.95;;;5.32;;
18455;SDS011;9357;49.900;8.208;2023-02-28T07:16:14;7.88;;;6.75;;
18455;SDS011;9357;49.900;8.208;2023-02-28T07:17:48;8.85;;;5.85;;
18455;SDS011;9357;49.900;8.208;2023-02-28T07:19:21;6.13;;;4.82;;
18455;SDS011;9357;49.900;8.208;2023-02-28T07:20:54;7.30;;;5.10;;
18455;SDS011;9357;49.900;8.208;2023-02-28T07:22:27;8.35;;;5.25;;
18455;SDS011;9357;49.900;8.208;2023-02-28T07:24:00;7.25;;;4.97;;
18455;SDS011;9357;49.900;8.208;2023-02-28T07:25:33;6.57;;;4.78;;
18455;SDS011;9357;49.900;8.208;2023-02-28T07:27:06;7.75;;;5.45;;
18455;SDS011;9357;49.900;8.208;2023-02-28T07:28:38;6.68;;;5.13;;
18455;SDS011;9357;49.900;8.208;2023-02-28T07:30:11;6.82;;;5.15;;
18455;SDS011;9357;49.900;8.208;2023-02-28T07:31:45;10.70;;;5.03;;
18455;SDS011;9357;49.900;8.208;2023-02-28T07:33:19;6.30;;;4.88;;
18455;SDS011;9357;49.900;8.208;2023-02-28T07:34:52;5.00;;;4.15;;
18455;SDS011;9357;49.900;8.208;2023-02-28T07:36:25;6.55;;;4.40;;
18455;SDS011;9357;49.900;8.208;2023-02-28T07:37:58;5.95;;;4.60;;
18455;SDS011;9357;49.900;8.208;2023-02-28T07:39:32;6.85;;;4.00;;
18455;SDS011;9357;49.900;8.208;2023-02-28T07:41:04;6.65;;;4.18;;
18455;SDS011;9357;49.900;8.208;2023-02-28T07:42:37;5.90;;;4.35;;
18455;SDS011;9357;49.900;8.208;2023-02-28T07:44:11;4.80;;;4.28;;
18455;SDS011;9357;49.900;8.208;2023-02-28T07:45:44;5.28;;;4.07;;
18455;SDS011;9357;49.900;8.208;2023-02-28T07:47:17;5.47;;;3.90;;
18455;SDS011;9357;49.900;8.208;2023-02-28T07:48:51;5.47;;;3.92;;
18455;SDS011;9357;49.900;8.208;2023-02-28T07:50:26;5.22;;;3.65;;
18455;SDS011;9357;49.900;8.208;2023-02-28T07:52:02;3.95;;;3.65;;
18455;SDS011;9357;49.900;8.208;2023-02-28T07:53:35;4.68;;;3.78;;
18455;SDS011;9357;49.900;8.208;2023-02-28T07:55:08;4.22;;;3.78;;
18455;SDS011;9357;49.900;8.208;2023-02-28T07:56:41;4.45;;;3.50;;
18455;SDS011;9357;49.900;8.208;2023-02-28T07:58:14;4.65;;;3.42;;
18455;SDS011;9357;49.900;8.208;2023-02-28T07:59:47;5.32;;;3.90;;
18455;SDS011;9357;49.900;8.208;2023-02-28T08:01:19;6.40;;;3.92;;
18455;SDS011;9357;49.900;8.208;2023-02-28T08:02:52;4.63;;;3.80;;
18455;SDS011;9357;49.900;8.208;2023-02-28T08:04:27;8.00;;;4.22;;
18455;SDS011;9357;49.900;8.208;2023-02-28T08:06:00;6.03;;;4.53;;
18455;SDS011;9357;49.900;8.208;2023-02-28T08:07:33;6.05;;;4.90;;
18455;SDS011;9357;49.900;8.208;2023-02-28T08:09:06;5.93;;;5.32;;
18455;SDS011;9357;49.900;8.208;2023-02-28T08:10:39;6.45;;;4.88;;
18455;SDS011;9357;49.900;8.208;2023-02-28T08:12:11;9.27;;;7.00;;
18455;SDS011;9357;49.900;8.208;2023-02-28T08:13:44;8.02;;;6.32;;
18455;SDS011;9357;49.900;8.208;2023-02-28T08:15:17;6.25;;;5.32;;
18455;SDS011;9357;49.900;8.208;2023-02-28T08:16:50;8.95;;;5.20;;
18455;SDS011;9357;49.900;8.208;2023-02-28T08:18:23;7.32;;;5.30;;
18455;SDS011;9357;49.900;8.208;2023-02-28T08:19:57;6.72;;;4.55;;
18455;SDS011;9357;49.900;8.208;2023-02-28T08:21:30;8.70;;;4.55;;
18455;SDS011;9357;49.900;8.208;2023-02-28T08:23:04;6.32;;;5.30;;
18455;SDS011;9357;49.900;8.208;2023-02-28T08:24:36;8.18;;;5.57;;
18455;SDS011;9357;49.900;8.208;2023-02-28T08:26:09;6.45;;;4.55;;
18455;SDS011;9357;49.900;8.208;2023-02-28T08:27:42;7.75;;;5.13;;
18455;SDS011;9357;49.900;8.208;2023-02-28T08:29:15;6.60;;;5.20;;
18455;SDS011;9357;49.900;8.208;2023-02-28T08:30:48;6.03;;;5.13;;
18455;SDS011;9357;49.900;8.208;2023-02-28T08:32:21;12.40;;;4.80;;
18455;SDS011;9357;49.900;8.208;2023-02-28T08:34:00;5.15;;;4.55;;
18455;SDS011;9357;49.900;8.208;2023-02-28T08:35:38;8.07;;;5.75;;
18455;SDS011;9357;49.900;8.208;2023-02-28T08:37:11;9.50;;;5.50;;
18455;SDS011;9357;49.900;8.208;2023-02-28T08:38:44;5.85;;;4.45;;
18455;SDS011;9357;49.900;8.208;2023-02-28T08:40:17;6.53;;;4.50;;
18455;SDS011;9357;49.900;8.208;2023-02-28T08:41:50;6.15;;;5.03;;
18455;SDS011;9357;49.900;8.208;2023-02-28T08:43:37;7.72;;;5.57;;
18455;SDS011;9357;49.900;8.208;2023-02-28T08:45:10;5.78;;;4.38;;
18455;SDS011;9357;49.900;8.208;2023-02-28T08:46:43;7.18;;;4.75;;
18455;SDS011;9357;49.900;8.208;2023-02-28T08:48:16;7.20;;;4.85;;
18455;SDS011;9357;49.900;8.208;2023-02-28T08:49:49;6.88;;;4.78;;
18455;SDS011;9357;49.900;8.208;2023-02-28T08:51:23;6.45;;;4.50;;
18455;SDS011;9357;49.900;8.208;2023-02-28T08:52:58;8.93;;;4.80;;
18455;SDS011;9357;49.900;8.208;2023-02-28T08:54:32;6.93;;;4.60;;
18455;SDS011;9357;49.900;8.208;2023-02-28T08:56:06;4.95;;;3.92;;
18455;SDS011;9357;49.900;8.208;2023-02-28T08:57:39;5.18;;;4.25;;
18455;SDS011;9357;49.900;8.208;2023-02-28T08:59:12;6.18;;;4.32;;
18455;SDS011;9357;49.900;8.208;2023-02-28T09:00:45;6.82;;;4.60;;
18455;SDS011;9357;49.900;8.208;2023-02-28T09:02:18;4.50;;;4.07;;
18455;SDS011;9357;49.900;8.208;2023-02-28T09:03:51;6.47;;;5.07;;
18455;SDS011;9357;49.900;8.208;2023-02-28T09:05:24;4.60;;;4.03;;
18455;SDS011;9357;49.900;8.208;2023-02-28T09:06:58;6.20;;;4.20;;
18455;SDS011;9357;49.900;8.208;2023-02-28T09:08:31;6.32;;;4.32;;
18455;SDS011;9357;49.900;8.208;2023-02-28T09:10:04;4.50;;;3.95;;
18455;SDS011;9357;49.900;8.208;2023-02-28T09:11:37;6.22;;;4.68;;
18455;SDS011;9357;49.900;8.208;2023-02-28T09:13:09;4.90;;;4.40;;
18455;SDS011;9357;49.900;8.208;2023-02-28T09:14:42;5.80;;;4.38;;
18455;SDS011;9357;49.900;8.208;2023-02-28T09:16:15;4.90;;;4.25;;
18455;SDS011;9357;49.900;8.208;2023-02-28T09:17:49;6.80;;;4.30;;
18455;SDS011;9357;49.900;8.208;2023-02-28T09:19:22;6.03;;;4.38;;
18455;SDS011;9357;49.900;8.208;2023-02-28T09:20:54;5.40;;;4.10;;
18455;SDS011;9357;49.900;8.208;2023-02-28T09:22:30;4.63;;;3.90;;
18455;SDS011;9357;49.900;8.208;2023-02-28T09:24:03;5.20;;;3.83;;
18455;SDS011;9357;49.900;8.208;2023-02-28T09:25:37;6.25;;;3.70;;
18455;SDS011;9357;49.900;8.208;2023-02-28T09:27:10;4.40;;;3.90;;
18455;SDS011;9357;49.900;8.208;2023-02-28T09:28:43;5.10;;;4.15;;
18455;SDS011;9357;49.900;8.208;2023-02-28T09:30:16;4.85;;;3.83;;
18455;SDS011;9357;49.900;8.208;2023-02-28T09:31:49;5.65;;;4.28;;
18455;SDS011;9357;49.900;8.208;2023-02-28T09:33:22;6.32;;;4.68;;
18455;SDS011;9357;49.900;8.208;2023-02-28T09:34:55;3.72;;;3.42;;
18455;SDS011;9357;49.900;8.208;2023-02-28T09:36:28;4.35;;;3.90;;
18455;SDS011;9357;49.900;8.208;2023-02-28T09:38:16;4.55;;;3.67;;
18455;SDS011;9357;49.900;8.208;2023-02-28T09:39:49;3.72;;;3.42;;
18455;SDS011;9357;49.900;8.208;2023-02-28T09:41:22;4.35;;;3.90;;
18455;SDS011;9357;49.900;8.208;2023-02-28T09:42:59;4.72;;;3.88;;
18455;SDS011;9357;49.900;8.208;2023-02-28T09:44:33;4.97;;;3.65;;
18455;SDS011;9357;49.900;8.208;2023-02-28T09:46:12;5.05;;;3.90;;
18455;SDS011;9357;49.900;8.208;2023-02-28T09:47:53;5.15;;;3.63;;
18455;SDS011;9357;49.900;8.208;2023-02-28T09:49:31;4.15;;;3.60;;
18455;SDS011;9357;49.900;8.208;2023-02-28T09:51:11;4.65;;;3.88;;